< < Back
Terminal Aerodrome Forecast


Current Version              Previous Versions:   1  2  3  4  5  6  7  8  9  

Terminal Aerodrome Forecast

202
FTUS42 KGSP 131331 AAA
TAFGSP
TAF AMD
KGSP 131331Z 1314/1412 35008KT P6SM FEW250
      TEMPO 1314/1318 01010G19KT
     FM140600 03004KT P6SM SCT150
     FM141000 06004KT P6SM BKN090=

Latest METAR

645
SAUS70 KWBC 132300 RRH
MTRGSP
METAR KGSP 132253Z 03009KT 10SM CLR 02/M15 A3029 RMK AO2 SLP263
T00221150


USA.gov is the U.S. government's official web portal to all federal, state and local government web resources and services.